sensor_id;sensor_type;location;lat;lon;timestamp;pressure;altitude;pressure_sealevel;temperature;humidity
15272;BME280;7737;51.578;7.268;2024-03-25T05:48:09;100253.69;;;4.98;100.00
15272;BME280;7737;51.578;7.268;2024-03-25T05:50:35;100264.31;;;4.95;100.00
15272;BME280;7737;51.578;7.268;2024-03-25T05:53:00;100263.22;;;5.02;100.00
15272;BME280;7737;51.578;7.268;2024-03-25T05:55:26;100265.28;;;4.92;100.00
15272;BME280;7737;51.578;7.268;2024-03-25T05:57:51;100264.38;;;4.93;100.00
15272;BME280;7737;51.578;7.268;2024-03-25T06:00:17;100261.75;;;4.93;100.00
15272;BME280;7737;51.578;7.268;2024-03-25T06:02:43;100267.19;;;4.89;100.00
15272;BME280;7737;51.578;7.268;2024-03-25T06:05:10;100265.34;;;4.91;100.00
15272;BME280;7737;51.578;7.268;2024-03-25T06:07:35;100270.69;;;4.89;100.00
15272;BME280;7737;51.578;7.268;2024-03-25T06:10:01;100269.72;;;4.92;100.00
15272;BME280;7737;51.578;7.268;2024-03-25T06:12:27;100274.72;;;5.00;100.00
15272;BME280;7737;51.578;7.268;2024-03-25T06:14:52;100264.28;;;4.97;100.00
15272;BME280;7737;51.578;7.268;2024-03-25T06:17:18;100269.28;;;5.04;100.00
15272;BME280;7737;51.578;7.268;2024-03-25T06:19:43;100264.81;;;5.06;100.00
15272;BME280;7737;51.578;7.268;2024-03-25T06:22:10;100261.19;;;5.10;100.00
15272;BME280;7737;51.578;7.268;2024-03-25T06:24:36;100271.81;;;5.07;100.00
15272;BME280;7737;51.578;7.268;2024-03-25T06:33:45;100266.28;;;5.15;100.00
15272;BME280;7737;51.578;7.268;2024-03-25T07:17:41;100280.56;;;6.05;100.00
15272;BME280;7737;51.578;7.268;2024-03-25T07:20:08;100271.75;;;6.06;100.00
15272;BME280;7737;51.578;7.268;2024-03-25T07:22:34;100279.50;;;6.09;100.00
15272;BME280;7737;51.578;7.268;2024-03-25T07:25:00;100273.16;;;6.14;100.00
15272;BME280;7737;51.578;7.268;2024-03-25T07:27:25;100270.84;;;6.29;100.00
15272;BME280;7737;51.578;7.268;2024-03-25T07:29:51;100267.09;;;6.34;100.00
15272;BME280;7737;51.578;7.268;2024-03-25T07:32:16;100268.84;;;6.35;100.00
15272;BME280;7737;51.578;7.268;2024-03-25T07:34:43;100271.75;;;6.49;100.00
15272;BME280;7737;51.578;7.268;2024-03-25T07:37:09;100273.50;;;6.50;100.00
15272;BME280;7737;51.578;7.268;2024-03-25T07:39:35;100273.75;;;6.66;100.00
15272;BME280;7737;51.578;7.268;2024-03-25T07:42:00;100271.88;;;6.68;100.00
15272;BME280;7737;51.578;7.268;2024-03-25T07:44:26;100270.66;;;6.77;100.00
15272;BME280;7737;51.578;7.268;2024-03-25T07:46:51;100270.00;;;6.92;100.00
15272;BME280;7737;51.578;7.268;2024-03-25T07:49:17;100271.09;;;6.88;100.00
15272;BME280;7737;51.578;7.268;2024-03-25T07:51:44;100270.00;;;6.92;100.00
15272;BME280;7737;51.578;7.268;2024-03-25T07:54:10;100271.50;;;6.99;100.00
15272;BME280;7737;51.578;7.268;2024-03-25T07:56:35;100268.25;;;7.12;100.00
15272;BME280;7737;51.578;7.268;2024-03-25T07:59:01;100273.59;;;7.11;100.00
15272;BME280;7737;51.578;7.268;2024-03-25T08:01:27;100262.56;;;7.21;100.00
15272;BME280;7737;51.578;7.268;2024-03-25T08:03:52;100263.19;;;7.28;100.00
15272;BME280;7737;51.578;7.268;2024-03-25T08:06:18;100258.47;;;7.34;100.00
15272;BME280;7737;51.578;7.268;2024-03-25T08:08:45;100258.09;;;7.44;100.00
15272;BME280;7737;51.578;7.268;2024-03-25T08:11:11;100258.00;;;7.45;100.00
15272;BME280;7737;51.578;7.268;2024-03-25T08:13:36;100257.97;;;7.65;100.00
15272;BME280;7737;51.578;7.268;2024-03-25T08:16:03;100259.03;;;7.61;100.00
15272;BME280;7737;51.578;7.268;2024-03-25T08:18:28;100251.53;;;7.71;100.00
15272;BME280;7737;51.578;7.268;2024-03-25T08:20:54;100254.53;;;7.63;100.00
15272;BME280;7737;51.578;7.268;2024-03-25T08:23:20;100259.69;;;7.66;100.00
15272;BME280;7737;51.578;7.268;2024-03-25T08:25:47;100256.97;;;7.68;100.00
15272;BME280;7737;51.578;7.268;2024-03-25T08:28:12;100257.56;;;7.74;100.00
15272;BME280;7737;51.578;7.268;2024-03-25T08:30:38;100262.00;;;7.92;100.00
15272;BME280;7737;51.578;7.268;2024-03-25T08:33:04;100247.84;;;7.93;100.00
15272;BME280;7737;51.578;7.268;2024-03-25T08:35:30;100261.50;;;7.84;100.00
15272;BME280;7737;51.578;7.268;2024-03-25T08:37:55;100252.13;;;7.77;100.00
15272;BME280;7737;51.578;7.268;2024-03-25T08:40:21;100254.16;;;7.91;100.00
15272;BME280;7737;51.578;7.268;2024-03-25T08:42:48;100243.84;;;7.85;100.00
15272;BME280;7737;51.578;7.268;2024-03-25T08:45:14;100237.91;;;7.98;100.00
15272;BME280;7737;51.578;7.268;2024-03-25T08:47:39;100247.41;;;8.03;100.00
15272;BME280;7737;51.578;7.268;2024-03-25T08:50:05;100243.84;;;8.04;100.00
15272;BME280;7737;51.578;7.268;2024-03-25T08:52:31;100238.28;;;8.10;100.00
15272;BME280;7737;51.578;7.268;2024-03-25T08:54:57;100240.09;;;8.26;100.00
15272;BME280;7737;51.578;7.268;2024-03-25T08:57:22;100236.75;;;8.23;100.00
15272;BME280;7737;51.578;7.268;2024-03-25T08:59:50;100229.03;;;8.37;100.00
15272;BME280;7737;51.578;7.268;2024-03-25T09:02:15;100227.00;;;8.42;100.00
15272;BME280;7737;51.578;7.268;2024-03-25T09:04:41;100238.78;;;8.18;100.00
15272;BME280;7737;51.578;7.268;2024-03-25T09:07:07;100234.25;;;8.20;100.00
15272;BME280;7737;51.578;7.268;2024-03-25T09:09:32;100229.41;;;8.29;100.00
15272;BME280;7737;51.578;7.268;2024-03-25T09:12:16;100225.09;;;8.45;100.00
15272;BME280;7737;51.578;7.268;2024-03-25T09:14:42;100231.44;;;8.77;100.00
15272;BME280;7737;51.578;7.268;2024-03-25T09:17:09;100228.03;;;8.75;100.00
15272;BME280;7737;51.578;7.268;2024-03-25T09:19:34;100209.78;;;8.86;100.00
15272;BME280;7737;51.578;7.268;2024-03-25T09:22:00;100214.47;;;8.98;100.00
15272;BME280;7737;51.578;7.268;2024-03-25T09:24:26;100211.97;;;8.78;100.00
15272;BME280;7737;51.578;7.268;2024-03-25T09:26:52;100205.91;;;8.76;100.00
15272;BME280;7737;51.578;7.268;2024-03-25T09:29:17;100205.50;;;8.84;100.00
15272;BME280;7737;51.578;7.268;2024-03-25T09:31:43;100201.28;;;8.80;100.00
15272;BME280;7737;51.578;7.268;2024-03-25T09:34:10;100204.78;;;8.80;100.00
15272;BME280;7737;51.578;7.268;2024-03-25T09:36:35;100203.69;;;8.84;100.00
15272;BME280;7737;51.578;7.268;2024-03-25T09:39:01;100197.94;;;8.76;100.00
15272;BME280;7737;51.578;7.268;2024-03-25T09:41:28;100200.91;;;8.70;100.00
15272;BME280;7737;51.578;7.268;2024-03-25T09:43:55;100199.50;;;8.80;100.00
15272;BME280;7737;51.578;7.268;2024-03-25T09:46:21;100197.47;;;8.85;100.00
15272;BME280;7737;51.578;7.268;2024-03-25T09:48:48;100192.78;;;8.90;100.00
15272;BME280;7737;51.578;7.268;2024-03-25T09:51:16;100198.25;;;8.87;100.00
15272;BME280;7737;51.578;7.268;2024-03-25T09:53:41;100199.03;;;8.89;100.00
15272;BME280;7737;51.578;7.268;2024-03-25T09:56:07;100195.91;;;8.81;100.00
15272;BME280;7737;51.578;7.268;2024-03-25T09:58:34;100181.56;;;8.85;100.00
15272;BME280;7737;51.578;7.268;2024-03-25T10:01:00;100178.22;;;8.99;100.00
15272;BME280;7737;51.578;7.268;2024-03-25T10:03:25;100173.94;;;8.96;100.00
15272;BME280;7737;51.578;7.268;2024-03-25T10:05:51;100169.69;;;9.09;100.00
15272;BME280;7737;51.578;7.268;2024-03-25T10:08:21;100166.22;;;9.25;100.00
15272;BME280;7737;51.578;7.268;2024-03-25T10:10:47;100168.31;;;9.35;100.00
15272;BME280;7737;51.578;7.268;2024-03-25T10:13:12;100164.13;;;9.31;100.00
15272;BME280;7737;51.578;7.268;2024-03-25T10:15:38;100154.84;;;9.23;100.00
15272;BME280;7737;51.578;7.268;2024-03-25T10:18:04;100140.72;;;9.39;100.00
15272;BME280;7737;51.578;7.268;2024-03-25T10:20:30;100132.06;;;9.51;100.00
15272;BME280;7737;51.578;7.268;2024-03-25T10:22:55;100125.16;;;9.80;100.00
15272;BME280;7737;51.578;7.268;2024-03-25T10:25:23;100118.13;;;10.10;100.00
15272;BME280;7737;51.578;7.268;2024-03-25T10:27:53;100099.53;;;10.10;100.00
15272;BME280;7737;51.578;7.268;2024-03-25T10:30:19;100089.44;;;10.47;100.00
15272;BME280;7737;51.578;7.268;2024-03-25T10:32:45;100072.84;;;10.13;100.00
15272;BME280;7737;51.578;7.268;2024-03-25T10:35:11;100059.22;;;10.33;100.00
15272;BME280;7737;51.578;7.268;2024-03-25T10:37:38;100062.16;;;10.59;100.00
15272;BME280;7737;51.578;7.268;2024-03-25T10:40:08;100062.13;;;10.45;100.00
15272;BME280;7737;51.578;7.268;2024-03-25T10:42:39;100047.47;;;10.81;100.00
15272;BME280;7737;51.578;7.268;2024-03-25T10:45:08;100036.06;;;11.22;100.00
15272;BME280;7737;51.578;7.268;2024-03-25T10:47:34;100018.41;;;10.64;100.00
15272;BME280;7737;51.578;7.268;2024-03-25T10:50:06;99997.69;;;10.55;100.00
15272;BME280;7737;51.578;7.268;2024-03-25T10:52:34;100012.56;;;10.29;100.00
15272;BME280;7737;51.578;7.268;2024-03-25T10:55:01;100024.16;;;10.43;100.00
15272;BME280;7737;51.578;7.268;2024-03-25T10:57:28;100007.84;;;10.49;100.00
15272;BME280;7737;51.578;7.268;2024-03-25T10:59:57;99974.03;;;10.36;100.00
15272;BME280;7737;51.578;7.268;2024-03-25T11:02:23;99990.47;;;10.57;100.00
15272;BME280;7737;51.578;7.268;2024-03-25T11:04:50;99991.53;;;10.69;100.00
15272;BME280;7737;51.578;7.268;2024-03-25T11:07:30;99979.38;;;10.65;100.00
15272;BME280;7737;51.578;7.268;2024-03-25T11:10:03;99961.16;;;10.73;100.00
15272;BME280;7737;51.578;7.268;2024-03-25T11:12:32;99960.59;;;10.96;100.00
15272;BME280;7737;51.578;7.268;2024-03-25T11:15:01;99953.56;;;10.67;100.00
15272;BME280;7737;51.578;7.268;2024-03-25T11:17:27;99969.25;;;10.85;100.00
15272;BME280;7737;51.578;7.268;2024-03-25T11:19:53;99946.31;;;10.97;100.00
15272;BME280;7737;51.578;7.268;2024-03-25T11:22:24;99941.13;;;10.95;100.00
15272;BME280;7737;51.578;7.268;2024-03-25T11:24:50;99941.97;;;10.96;100.00
15272;BME280;7737;51.578;7.268;2024-03-25T11:27:21;99926.97;;;10.95;100.00
15272;BME280;7737;51.578;7.268;2024-03-25T11:29:47;99926.09;;;10.80;100.00
15272;BME280;7737;51.578;7.268;2024-03-25T11:32:14;99937.53;;;10.68;100.00
15272;BME280;7737;51.578;7.268;2024-03-25T11:34:50;99936.19;;;10.75;100.00
15272;BME280;7737;51.578;7.268;2024-03-25T11:37:16;99916.06;;;10.57;100.00
15272;BME280;7737;51.578;7.268;2024-03-25T11:39:41;99901.47;;;11.05;100.00
15272;BME280;7737;51.578;7.268;2024-03-25T11:42:08;99894.09;;;10.96;100.00
15272;BME280;7737;51.578;7.268;2024-03-25T11:44:36;99856.03;;;11.22;100.00
15272;BME280;7737;51.578;7.268;2024-03-25T11:47:02;99840.84;;;11.10;100.00
15272;BME280;7737;51.578;7.268;2024-03-25T11:49:29;99821.25;;;10.98;100.00
15272;BME280;7737;51.578;7.268;2024-03-25T11:51:54;99846.00;;;12.04;100.00
15272;BME280;7737;51.578;7.268;2024-03-25T11:54:20;99840.88;;;12.14;100.00
15272;BME280;7737;51.578;7.268;2024-03-25T11:56:46;99817.44;;;11.94;100.00
15272;BME280;7737;51.578;7.268;2024-03-25T11:59:12;99814.63;;;12.08;100.00
15272;BME280;7737;51.578;7.268;2024-03-25T12:01:38;99827.94;;;12.20;100.00
15272;BME280;7737;51.578;7.268;2024-03-25T12:04:09;99826.81;;;12.61;100.00
15272;BME280;7737;51.578;7.268;2024-03-25T12:06:36;99784.25;;;12.36;99.60
15272;BME280;7737;51.578;7.268;2024-03-25T12:09:02;99784.88;;;12.75;100.00
15272;BME280;7737;51.578;7.268;2024-03-25T12:11:46;99792.97;;;12.74;100.00
15272;BME280;7737;51.578;7.268;2024-03-25T12:14:13;99739.47;;;12.64;96.16
15272;BME280;7737;51.578;7.268;2024-03-25T12:16:39;99760.00;;;12.99;98.09
15272;BME280;7737;51.578;7.268;2024-03-25T12:19:05;99749.59;;;13.30;98.12
15272;BME280;7737;51.578;7.268;2024-03-25T12:21:31;99734.19;;;13.23;96.17
15272;BME280;7737;51.578;7.268;2024-03-25T12:23:59;99728.72;;;13.01;95.02
15272;BME280;7737;51.578;7.268;2024-03-25T12:26:25;99705.44;;;13.03;93.27
15272;BME280;7737;51.578;7.268;2024-03-25T12:28:51;99668.22;;;13.01;90.42
15272;BME280;7737;51.578;7.268;2024-03-25T12:31:17;99661.41;;;13.32;90.10
15272;BME280;7737;51.578;7.268;2024-03-25T12:33:43;99641.34;;;12.22;88.94
15272;BME280;7737;51.578;7.268;2024-03-25T12:36:11;99663.97;;;12.40;89.50
15272;BME280;7737;51.578;7.268;2024-03-25T12:38:37;99669.38;;;12.51;91.09
15272;BME280;7737;51.578;7.268;2024-03-25T12:41:07;99682.91;;;12.25;92.32
15272;BME280;7737;51.578;7.268;2024-03-25T12:43:34;99689.66;;;12.41;92.25
15272;BME280;7737;51.578;7.268;2024-03-25T12:46:00;99694.88;;;12.66;93.44
15272;BME280;7737;51.578;7.268;2024-03-25T12:48:27;99658.31;;;11.72;89.94
15272;BME280;7737;51.578;7.268;2024-03-25T12:50:52;99699.03;;;12.47;94.31
15272;BME280;7737;51.578;7.268;2024-03-25T12:53:19;99701.75;;;13.16;94.68
15272;BME280;7737;51.578;7.268;2024-03-25T12:55:45;99669.06;;;13.02;91.96
15272;BME280;7737;51.578;7.268;2024-03-25T12:58:12;99671.44;;;12.82;91.72
15272;BME280;7737;51.578;7.268;2024-03-25T13:00:38;99658.19;;;13.05;90.58
15272;BME280;7737;51.578;7.268;2024-03-25T13:03:04;99617.31;;;12.11;86.44
15272;BME280;7737;51.578;7.268;2024-03-25T13:05:32;99655.38;;;12.71;89.83
15272;BME280;7737;51.578;7.268;2024-03-25T13:07:58;99692.72;;;13.06;93.28
15272;BME280;7737;51.578;7.268;2024-03-25T13:10:26;99646.19;;;12.75;89.04
15272;BME280;7737;51.578;7.268;2024-03-25T13:12:53;99582.31;;;11.92;84.31
15272;BME280;7737;51.578;7.268;2024-03-25T13:15:20;99577.00;;;12.15;83.93
15272;BME280;7737;51.578;7.268;2024-03-25T13:17:46;99583.16;;;12.16;84.79
15272;BME280;7737;51.578;7.268;2024-03-25T13:20:11;99586.97;;;12.25;84.42
15272;BME280;7737;51.578;7.268;2024-03-25T13:22:37;99601.84;;;13.20;86.23
15272;BME280;7737;51.578;7.268;2024-03-25T13:25:03;99543.66;;;12.79;81.97
15272;BME280;7737;51.578;7.268;2024-03-25T13:27:29;99529.00;;;12.85;82.42
15272;BME280;7737;51.578;7.268;2024-03-25T13:29:54;99541.03;;;13.46;82.54
15272;BME280;7737;51.578;7.268;2024-03-25T13:32:22;99546.75;;;13.95;84.69
15272;BME280;7737;51.578;7.268;2024-03-25T13:34:48;99522.50;;;13.87;82.40
15272;BME280;7737;51.578;7.268;2024-03-25T13:37:14;99521.28;;;13.91;82.83
15272;BME280;7737;51.578;7.268;2024-03-25T13:39:39;99533.00;;;14.43;84.38
15272;BME280;7737;51.578;7.268;2024-03-25T13:42:05;99494.16;;;14.39;82.03
15272;BME280;7737;51.578;7.268;2024-03-25T13:44:30;99468.47;;;14.16;80.02
15272;BME280;7737;51.578;7.268;2024-03-25T13:46:56;99458.25;;;13.57;78.84
15272;BME280;7737;51.578;7.268;2024-03-25T13:49:23;99502.13;;;14.50;81.70
15272;BME280;7737;51.578;7.268;2024-03-25T13:51:51;99445.13;;;14.18;78.66
15272;BME280;7737;51.578;7.268;2024-03-25T13:54:21;99442.00;;;13.60;77.09
15272;BME280;7737;51.578;7.268;2024-03-25T13:56:46;99452.31;;;13.54;79.29
15272;BME280;7737;51.578;7.268;2024-03-25T13:59:12;99429.59;;;13.91;77.27
15272;BME280;7737;51.578;7.268;2024-03-25T14:01:38;99426.94;;;14.12;78.90
15272;BME280;7737;51.578;7.268;2024-03-25T14:04:04;99373.06;;;13.22;73.73
15272;BME280;7737;51.578;7.268;2024-03-25T14:06:31;99346.97;;;13.26;72.48
15272;BME280;7737;51.578;7.268;2024-03-25T14:08:56;99417.59;;;14.38;78.41
15272;BME280;7737;51.578;7.268;2024-03-25T14:11:22;99367.25;;;14.01;73.67
15272;BME280;7737;51.578;7.268;2024-03-25T14:13:48;99353.47;;;14.47;72.82
15272;BME280;7737;51.578;7.268;2024-03-25T14:16:13;99388.72;;;14.92;75.72
15272;BME280;7737;51.578;7.268;2024-03-25T14:18:39;99369.28;;;14.60;72.35
15272;BME280;7737;51.578;7.268;2024-03-25T14:21:05;99381.22;;;14.86;73.11
15272;BME280;7737;51.578;7.268;2024-03-25T14:23:31;99318.06;;;13.83;68.43
15272;BME280;7737;51.578;7.268;2024-03-25T14:25:57;99292.63;;;13.48;68.24
15272;BME280;7737;51.578;7.268;2024-03-25T14:28:23;99358.75;;;14.58;72.81
15272;BME280;7737;51.578;7.268;2024-03-25T14:30:48;99277.91;;;13.53;67.52
15272;BME280;7737;51.578;7.268;2024-03-25T14:33:14;99298.16;;;14.18;69.34
15272;BME280;7737;51.578;7.268;2024-03-25T14:35:41;99288.09;;;13.80;68.61
15272;BME280;7737;51.578;7.268;2024-03-25T14:38:07;99344.88;;;13.61;70.96
15272;BME280;7737;51.578;7.268;2024-03-25T14:40:37;99326.47;;;13.99;70.04
15272;BME280;7737;51.578;7.268;2024-03-25T14:43:03;99358.34;;;14.22;73.07
15272;BME280;7737;51.578;7.268;2024-03-25T14:45:29;99308.44;;;13.71;69.08
15272;BME280;7737;51.578;7.268;2024-03-25T14:47:55;99308.19;;;14.55;69.01
15272;BME280;7737;51.578;7.268;2024-03-25T14:50:20;99307.13;;;14.17;69.44
15272;BME280;7737;51.578;7.268;2024-03-25T14:52:46;99355.56;;;14.23;73.47
15272;BME280;7737;51.578;7.268;2024-03-25T14:55:11;99297.66;;;14.03;69.09
15272;BME280;7737;51.578;7.268;2024-03-25T14:57:38;99301.66;;;13.67;69.30
15272;BME280;7737;51.578;7.268;2024-03-25T15:00:05;99296.63;;;13.94;68.69
15272;BME280;7737;51.578;7.268;2024-03-25T15:02:31;99281.19;;;13.77;68.68
15272;BME280;7737;51.578;7.268;2024-03-25T15:04:57;99302.03;;;13.63;69.79
15272;BME280;7737;51.578;7.268;2024-03-25T15:07:22;99348.41;;;13.82;72.17
15272;BME280;7737;51.578;7.268;2024-03-25T15:09:48;99318.72;;;13.76;70.60
15272;BME280;7737;51.578;7.268;2024-03-25T15:12:13;99317.41;;;13.91;71.11
15272;BME280;7737;51.578;7.268;2024-03-25T15:14:40;99345.03;;;14.52;73.24
15272;BME280;7737;51.578;7.268;2024-03-25T15:17:06;99287.00;;;14.33;68.74
15272;BME280;7737;51.578;7.268;2024-03-25T15:19:33;99301.78;;;14.17;70.23
15272;BME280;7737;51.578;7.268;2024-03-25T15:21:58;99348.00;;;14.89;73.38
15272;BME280;7737;51.578;7.268;2024-03-25T15:24:24;99297.78;;;14.62;71.44
15272;BME280;7737;51.578;7.268;2024-03-25T15:26:49;99239.16;;;13.79;66.68
15272;BME280;7737;51.578;7.268;2024-03-25T15:29:15;99249.41;;;13.54;67.24
15272;BME280;7737;51.578;7.268;2024-03-25T15:31:42;99253.63;;;13.56;68.19
15272;BME280;7737;51.578;7.268;2024-03-25T15:34:08;99231.97;;;13.29;67.23
15272;BME280;7737;51.578;7.268;2024-03-25T15:36:34;99248.69;;;13.31;67.94
15272;BME280;7737;51.578;7.268;2024-03-25T15:39:01;99245.13;;;13.41;66.87
15272;BME280;7737;51.578;7.268;2024-03-25T15:41:26;99302.47;;;13.88;71.39
15272;BME280;7737;51.578;7.268;2024-03-25T15:43:52;99236.06;;;13.33;67.11
15272;BME280;7737;51.578;7.268;2024-03-25T15:46:18;99222.31;;;13.06;66.71
15272;BME280;7737;51.578;7.268;2024-03-25T15:48:45;99214.91;;;12.89;66.28
15272;BME280;7737;51.578;7.268;2024-03-25T15:51:10;99210.88;;;12.94;66.30
15272;BME280;7737;51.578;7.268;2024-03-25T15:53:36;99234.50;;;12.56;68.44
15272;BME280;7737;51.578;7.268;2024-03-25T15:56:02;99280.47;;;13.55;70.34
15272;BME280;7737;51.578;7.268;2024-03-25T15:58:28;99233.78;;;13.08;67.94
15272;BME280;7737;51.578;7.268;2024-03-25T16:00:54;99271.84;;;13.10;70.47
15272;BME280;7737;51.578;7.268;2024-03-25T16:03:19;99230.19;;;12.87;67.18
15272;BME280;7737;51.578;7.268;2024-03-25T16:05:47;99220.50;;;13.17;66.69
15272;BME280;7737;51.578;7.268;2024-03-25T16:08:13;99212.81;;;13.24;66.79
15272;BME280;7737;51.578;7.268;2024-03-25T16:10:39;99198.44;;;13.15;66.07
15272;BME280;7737;51.578;7.268;2024-03-25T16:13:04;99217.25;;;13.03;67.40
15272;BME280;7737;51.578;7.268;2024-03-25T16:15:30;99223.13;;;12.97;68.44
15272;BME280;7737;51.578;7.268;2024-03-25T16:17:56;99225.81;;;12.86;67.97
15272;BME280;7737;51.578;7.268;2024-03-25T16:20:22;99240.22;;;12.40;68.58
15272;BME280;7737;51.578;7.268;2024-03-25T16:22:49;99256.75;;;12.12;69.12
15272;BME280;7737;51.578;7.268;2024-03-25T16:25:15;99270.78;;;12.14;69.60
15272;BME280;7737;51.578;7.268;2024-03-25T16:27:41;99267.50;;;12.44;69.49
15272;BME280;7737;51.578;7.268;2024-03-25T16:30:07;99281.06;;;12.52;70.20
15272;BME280;7737;51.578;7.268;2024-03-25T16:32:33;99292.81;;;12.49;70.54
15272;BME280;7737;51.578;7.268;2024-03-25T16:34:59;99309.28;;;12.43;71.72
15272;BME280;7737;51.578;7.268;2024-03-25T16:37:25;99295.94;;;12.10;69.54
15272;BME280;7737;51.578;7.268;2024-03-25T16:39:52;99281.44;;;12.14;69.89
15272;BME280;7737;51.578;7.268;2024-03-25T16:42:18;99288.19;;;12.18;70.89
15272;BME280;7737;51.578;7.268;2024-03-25T16:44:43;99294.13;;;12.21;70.87
15272;BME280;7737;51.578;7.268;2024-03-25T16:47:09;99299.22;;;11.91;71.55
15272;BME280;7737;51.578;7.268;2024-03-25T16:49:35;99351.47;;;11.81;74.57
15272;BME280;7737;51.578;7.268;2024-03-25T16:52:00;99381.88;;;11.66;76.75
15272;BME280;7737;51.578;7.268;2024-03-25T16:54:26;99417.16;;;11.57;79.12
15272;BME280;7737;51.578;7.268;2024-03-25T16:56:53;99444.13;;;11.52;80.27
15272;BME280;7737;51.578;7.268;2024-03-25T16:59:19;99453.03;;;11.88;80.84
15272;BME280;7737;51.578;7.268;2024-03-25T17:01:44;99410.81;;;11.47;77.04
15272;BME280;7737;51.578;7.268;2024-03-25T17:04:10;99412.97;;;11.66;77.13
15272;BME280;7737;51.578;7.268;2024-03-25T17:06:35;99386.91;;;11.82;75.49
15272;BME280;7737;51.578;7.268;2024-03-25T17:09:01;99363.38;;;11.65;74.56
15272;BME280;7737;51.578;7.268;2024-03-25T17:11:27;99355.84;;;11.58;74.07
15272;BME280;7737;51.578;7.268;2024-03-25T17:13:54;99357.41;;;11.61;74.46
15272;BME280;7737;51.578;7.268;2024-03-25T17:16:19;99376.44;;;11.44;76.19
15272;BME280;7737;51.578;7.268;2024-03-25T17:18:46;99392.47;;;11.31;76.77
15272;BME280;7737;51.578;7.268;2024-03-25T17:21:11;99413.75;;;11.31;78.16
15272;BME280;7737;51.578;7.268;2024-03-25T17:23:37;99407.00;;;11.15;77.62
15272;BME280;7737;51.578;7.268;2024-03-25T17:26:03;99423.22;;;10.99;77.72
15272;BME280;7737;51.578;7.268;2024-03-25T17:28:29;99405.66;;;11.09;77.15
15272;BME280;7737;51.578;7.268;2024-03-25T17:30:56;99399.84;;;10.91;76.97
15272;BME280;7737;51.578;7.268;2024-03-25T17:33:21;99419.00;;;10.84;78.10
15272;BME280;7737;51.578;7.268;2024-03-25T17:35:47;99439.88;;;10.65;79.12
15272;BME280;7737;51.578;7.268;2024-03-25T17:38:13;99430.94;;;10.66;78.97
15272;BME280;7737;51.578;7.268;2024-03-25T17:40:38;99447.66;;;10.55;79.24
15272;BME280;7737;51.578;7.268;2024-03-25T17:43:04;99450.72;;;10.36;79.72
15272;BME280;7737;51.578;7.268;2024-03-25T17:45:30;99462.53;;;10.32;80.92
15272;BME280;7737;51.578;7.268;2024-03-25T17:47:56;99472.19;;;10.33;81.35
15272;BME280;7737;51.578;7.268;2024-03-25T17:50:22;99497.25;;;10.29;83.27
15272;BME280;7737;51.578;7.268;2024-03-25T17:52:48;99502.28;;;10.07;84.32
15272;BME280;7737;51.578;7.268;2024-03-25T17:55:13;99533.94;;;10.10;86.83
15272;BME280;7737;51.578;7.268;2024-03-25T17:57:40;99533.13;;;9.96;86.04
15272;BME280;7737;51.578;7.268;2024-03-25T18:00:07;99535.34;;;9.89;86.14
15272;BME280;7737;51.578;7.268;2024-03-25T18:02:33;99536.91;;;9.79;86.68
15272;BME280;7737;51.578;7.268;2024-03-25T18:05:00;99561.94;;;9.75;88.56
15272;BME280;7737;51.578;7.268;2024-03-25T18:07:26;99571.00;;;9.85;89.01
15272;BME280;7737;51.578;7.268;2024-03-25T18:09:51;99570.50;;;9.66;89.94
15272;BME280;7737;51.578;7.268;2024-03-25T18:12:17;99577.09;;;9.73;90.53
15272;BME280;7737;51.578;7.268;2024-03-25T18:14:43;99582.25;;;9.48;90.73
15272;BME280;7737;51.578;7.268;2024-03-25T18:17:08;99591.56;;;9.55;92.52
15272;BME280;7737;51.578;7.268;2024-03-25T18:19:34;99590.13;;;9.49;92.32
15272;BME280;7737;51.578;7.268;2024-03-25T18:22:01;99598.66;;;9.40;94.20
15272;BME280;7737;51.578;7.268;2024-03-25T18:24:26;99602.91;;;9.43;94.61
15272;BME280;7737;51.578;7.268;2024-03-25T18:26:52;99602.94;;;9.29;94.77
15272;BME280;7737;51.578;7.268;2024-03-25T18:29:18;99604.44;;;9.33;95.61
15272;BME280;7737;51.578;7.268;2024-03-25T18:31:43;99608.88;;;9.32;97.18
15272;BME280;7737;51.578;7.268;2024-03-25T18:34:09;99594.59;;;9.35;96.19
15272;BME280;7737;51.578;7.268;2024-03-25T18:36:35;99609.38;;;9.25;96.83
15272;BME280;7737;51.578;7.268;2024-03-25T18:39:01;99604.81;;;9.27;98.08
15272;BME280;7737;51.578;7.268;2024-03-25T18:41:27;99607.00;;;9.06;98.29
15272;BME280;7737;51.578;7.268;2024-03-25T18:43:53;99615.50;;;9.11;99.04
15272;BME280;7737;51.578;7.268;2024-03-25T18:46:19;99620.44;;;9.03;99.68
15272;BME280;7737;51.578;7.268;2024-03-25T18:48:44;99616.56;;;8.94;100.00
15272;BME280;7737;51.578;7.268;2024-03-25T18:51:10;99620.50;;;8.73;100.00
15272;BME280;7737;51.578;7.268;2024-03-25T18:53:35;99614.69;;;8.67;100.00
15272;BME280;7737;51.578;7.268;2024-03-25T18:56:03;99624.59;;;8.63;100.00
15272;BME280;7737;51.578;7.268;2024-03-25T18:58:29;99622.56;;;8.68;100.00
15272;BME280;7737;51.578;7.268;2024-03-25T19:00:54;99621.13;;;8.63;100.00
15272;BME280;7737;51.578;7.268;2024-03-25T19:03:20;99619.13;;;8.52;100.00
15272;BME280;7737;51.578;7.268;2024-03-25T19:05:46;99621.50;;;8.56;100.00
15272;BME280;7737;51.578;7.268;2024-03-25T19:08:11;99615.47;;;8.39;100.00
15272;BME280;7737;51.578;7.268;2024-03-25T19:10:37;99626.25;;;8.36;100.00
15272;BME280;7737;51.578;7.268;2024-03-25T19:13:04;99620.94;;;8.36;100.00
15272;BME280;7737;51.578;7.268;2024-03-25T19:15:30;99619.56;;;8.29;100.00
15272;BME280;7737;51.578;7.268;2024-03-25T19:17:55;99611.41;;;8.33;100.00
15272;BME280;7737;51.578;7.268;2024-03-25T19:20:21;99612.59;;;8.28;100.00
15272;BME280;7737;51.578;7.268;2024-03-25T19:22:47;99613.94;;;8.19;100.00
15272;BME280;7737;51.578;7.268;2024-03-25T19:25:12;99608.91;;;8.15;100.00
15272;BME280;7737;51.578;7.268;2024-03-25T19:27:39;99610.88;;;8.27;100.00
15272;BME280;7737;51.578;7.268;2024-03-25T19:30:07;99601.47;;;8.21;100.00
15272;BME280;7737;51.578;7.268;2024-03-25T19:32:33;99594.47;;;8.20;100.00
15272;BME280;7737;51.578;7.268;2024-03-25T19:34:59;99602.50;;;8.19;100.00
15272;BME280;7737;51.578;7.268;2024-03-25T19:37:25;99610.53;;;8.17;100.00